Scarborough, United Kingdom
Current Conditions -  °F | °C
As of 3:50 AM on Monday 29 Dec 2014 (Local Time) from EGXV Reporting Station
Clear Clear  
Wind Chill: -4°   Ceiling: Unl
Heat Index:   Visibility: 6mi
Dew Point: -2°   Wind: 9mph
Humidity: 87%   Direction: 270°W
Pressure: 30.62"   Gusts: NA
Location:  54.28°N, 0.4°W
Report Text: EGXV 290350Z AUTO 27008KT 9999 NCD 00/M02 Q1037
Loading
Personal Weather Stations






























Interactive Weather Map New forecast layout! Learn more

10-Day Weather Forecast

Advertisements
Track Severe Weather on mobile